createdAt,value
2023-07-24T00:01:56.537Z,99897.53
2023-07-24T00:04:23.835Z,99896.75
2023-07-24T00:06:51.185Z,99892.06
2023-07-24T00:09:18.686Z,99894.03
2023-07-24T00:11:46.154Z,99897.75
2023-07-24T00:14:13.911Z,99893.00
2023-07-24T00:16:41.478Z,99897.59
2023-07-24T00:19:09.128Z,99897.66
2023-07-24T00:21:36.775Z,99899.16
2023-07-24T00:24:04.276Z,99898.34
2023-07-24T00:26:31.849Z,99907.75
2023-07-24T00:29:00.795Z,99903.47
2023-07-24T00:31:28.076Z,99899.75
2023-07-24T00:33:55.500Z,99893.53
2023-07-24T00:36:23.272Z,99892.75
2023-07-24T00:38:50.701Z,99892.69
2023-07-24T00:41:18.057Z,99888.03
2023-07-24T00:43:45.529Z,99891.53
2023-07-24T00:46:12.913Z,99885.31
2023-07-24T00:48:40.422Z,99887.59
2023-07-24T00:51:08.801Z,99886.00
2023-07-24T00:53:36.167Z,99890.63
2023-07-24T00:56:03.528Z,99890.34
2023-07-24T00:58:31.158Z,99897.66
2023-07-24T01:00:58.629Z,99894.56
2023-07-24T01:03:32.301Z,99886.78
2023-07-24T01:06:00.971Z,99896.56
2023-07-24T01:08:28.710Z,99897.66
2023-07-24T01:11:03.560Z,99890.19
2023-07-24T01:13:32.732Z,99882.03
2023-07-24T01:16:02.120Z,99879.66
2023-07-24T01:18:29.938Z,99881.19
2023-07-24T01:20:58.300Z,99871.84
2023-07-24T01:23:38.066Z,99881.97
2023-07-24T01:26:06.270Z,99869.50
2023-07-24T01:28:33.650Z,99871.84
2023-07-24T01:31:01.095Z,99878.88
2023-07-24T01:33:28.503Z,99866.72
2023-07-24T01:35:58.201Z,99868.34
2023-07-24T01:38:26.690Z,99869.94
2023-07-24T01:40:54.901Z,99871.16
2023-07-24T01:43:23.093Z,99862.13
2023-07-24T01:45:50.527Z,99859.38
2023-07-24T01:48:19.405Z,99867.97
2023-07-24T01:50:46.915Z,99861.72
2023-07-24T01:53:14.292Z,99874.94
2023-07-24T01:55:41.957Z,99869.91
2023-07-24T01:58:10.141Z,99866.41
2023-07-24T02:00:40.621Z,99875.00
2023-07-24T02:03:08.221Z,99871.59
2023-07-24T02:05:36.741Z,99870.53
2023-07-24T02:08:04.346Z,99858.88
2023-07-24T02:10:31.780Z,99867.50
2023-07-24T02:12:59.134Z,99864.44
2023-07-24T02:15:26.527Z,99863.59
2023-07-24T02:17:54.550Z,99867.56
2023-07-24T02:20:22.366Z,99866.84
2023-07-24T02:22:50.464Z,99864.50
2023-07-24T02:25:18.004Z,99854.81
2023-07-24T02:27:45.338Z,99863.81
2023-07-24T02:30:12.895Z,99859.16
2023-07-24T02:32:40.417Z,99866.19
2023-07-24T02:35:08.277Z,99863.13
2023-07-24T02:37:35.719Z,99857.69
2023-07-24T02:40:03.348Z,99864.34
2023-07-24T02:42:30.858Z,99866.69
2023-07-24T02:44:58.589Z,99863.94
2023-07-24T02:47:26.073Z,99870.22
2023-07-24T02:49:53.774Z,99872.56
2023-07-24T02:52:21.093Z,99866.28
2023-07-24T02:54:48.684Z,99865.88
2023-07-24T02:57:16.047Z,99867.84
2023-07-24T02:59:44.311Z,99875.31
2023-07-24T03:02:12.439Z,99869.88
2023-07-24T03:04:39.915Z,99868.69
2023-07-24T03:07:07.232Z,99862.47
2023-07-24T03:09:36.374Z,99862.84
2023-07-24T03:12:03.849Z,99853.47
2023-07-24T03:14:31.484Z,99855.44
2023-07-24T03:17:00.611Z,99856.97
2023-07-24T03:19:29.707Z,99853.00
2023-07-24T03:21:57.524Z,99853.00
2023-07-24T03:24:24.963Z,99861.16
2023-07-24T03:26:52.603Z,99845.47
2023-07-24T03:29:21.821Z,99854.41
2023-07-24T03:31:49.224Z,99853.63
2023-07-24T03:34:20.107Z,99851.66
2023-07-24T03:36:47.462Z,99848.88
2023-07-24T03:39:15.091Z,99849.66
2023-07-24T03:41:42.950Z,99851.94
2023-07-24T03:44:10.317Z,99852.75
2023-07-24T03:46:37.690Z,99848.13
2023-07-24T03:49:05.053Z,99851.94
2023-07-24T03:51:33.467Z,99857.41
2023-07-24T03:54:00.792Z,99849.97
2023-07-24T03:56:31.826Z,99844.06
2023-07-24T03:59:00.858Z,99840.97
2023-07-24T04:01:28.428Z,99841.31
2023-07-24T04:03:56.022Z,99845.66
2023-07-24T04:06:24.578Z,99836.31
2023-07-24T04:08:52.339Z,99841.38
2023-07-24T04:11:19.888Z,99850.34
2023-07-24T04:13:47.250Z,99846.78
2023-07-24T04:16:14.588Z,99841.97
2023-07-24T04:18:41.931Z,99845.91
2023-07-24T04:21:09.374Z,99838.47
2023-07-24T04:23:38.186Z,99835.44
2023-07-24T04:26:05.961Z,99831.63
2023-07-24T04:28:33.390Z,99836.84
2023-07-24T04:31:02.726Z,99831.13
2023-07-24T04:33:30.290Z,99834.34
2023-07-24T04:35:59.029Z,99834.31
2023-07-24T04:38:27.038Z,99836.59
2023-07-24T04:40:54.436Z,99835.78
2023-07-24T04:43:21.805Z,99833.03
2023-07-24T04:45:49.268Z,99836.44
2023-07-24T04:48:16.610Z,99834.03
2023-07-24T04:50:43.970Z,99841.06
2023-07-24T04:53:11.299Z,99828.56
2023-07-24T04:55:38.625Z,99830.91
2023-07-24T04:58:06.603Z,99833.97
2023-07-24T05:00:33.996Z,99839.59
2023-07-24T05:03:01.497Z,99832.06
2023-07-24T05:05:30.641Z,99824.47
2023-07-24T05:07:59.338Z,99830.63
2023-07-24T05:10:26.806Z,99839.38
2023-07-24T05:12:57.727Z,99830.47
2023-07-24T05:15:25.075Z,99826.13
2023-07-24T05:17:52.425Z,99826.66
2023-07-24T05:20:19.752Z,99825.16
2023-07-24T05:22:47.033Z,99824.09
2023-07-24T05:25:14.389Z,99818.34
2023-07-24T05:27:42.974Z,99823.81
2023-07-24T05:30:11.787Z,99823.91
2023-07-24T05:32:39.360Z,99826.06
2023-07-24T05:35:07.260Z,99826.41
2023-07-24T05:37:34.690Z,99819.47
2023-07-24T05:40:02.995Z,99821.72
2023-07-24T05:42:30.435Z,99827.00
2023-07-24T05:44:57.796Z,99821.69
2023-07-24T05:47:25.185Z,99817.38
2023-07-24T05:49:52.583Z,99829.59
2023-07-24T05:52:19.928Z,99816.84
2023-07-24T05:54:47.287Z,99818.94
2023-07-24T05:57:14.590Z,99810.78
2023-07-24T05:59:41.922Z,99812.41
2023-07-24T06:02:10.358Z,99813.00
2023-07-24T06:04:38.106Z,99807.09
2023-07-24T06:07:05.563Z,99811.75
2023-07-24T06:09:32.849Z,99814.31
2023-07-24T06:12:00.166Z,99814.38
2023-07-24T06:14:27.522Z,99809.75
2023-07-24T06:16:54.982Z,99796.41
2023-07-24T06:19:22.648Z,99796.06
2023-07-24T06:21:49.978Z,99795.50
2023-07-24T06:24:17.463Z,99794.41
2023-07-24T06:26:44.888Z,99791.41
2023-07-24T06:29:12.389Z,99785.56
2023-07-24T06:31:39.929Z,99787.22
2023-07-24T06:34:07.292Z,99789.31
2023-07-24T06:36:36.813Z,99783.69
2023-07-24T06:39:04.344Z,99786.53
2023-07-24T06:41:31.661Z,99790.63
2023-07-24T06:43:58.939Z,99789.78
2023-07-24T06:46:26.266Z,99786.41
2023-07-24T06:48:53.571Z,99799.16
2023-07-24T06:51:20.941Z,99790.75
2023-07-24T06:53:48.542Z,99791.09
2023-07-24T06:56:15.874Z,99808.84
2023-07-24T06:58:43.203Z,99794.56
2023-07-24T07:01:10.606Z,99794.97
2023-07-24T07:03:37.986Z,99797.81
2023-07-24T07:06:05.444Z,99796.78
2023-07-24T07:08:32.969Z,99789.16
2023-07-24T07:11:01.087Z,99785.75
2023-07-24T07:13:29.236Z,99798.75
2023-07-24T07:15:56.770Z,99798.28
2023-07-24T07:18:24.080Z,99798.34
2023-07-24T07:20:53.293Z,99790.94
2023-07-24T07:23:21.233Z,99801.47
2023-07-24T07:25:48.678Z,99794.06
2023-07-24T07:28:16.380Z,99793.50
2023-07-24T07:30:45.953Z,99797.09
2023-07-24T07:33:13.500Z,99804.44
2023-07-24T07:35:40.854Z,99800.06
2023-07-24T07:38:08.156Z,99804.50
2023-07-24T07:40:35.436Z,99804.47
2023-07-24T07:43:02.789Z,99806.34
2023-07-24T07:45:30.201Z,99799.13
2023-07-24T07:47:57.895Z,99799.22
2023-07-24T07:50:25.580Z,99787.56
2023-07-24T07:52:56.681Z,99796.53
2023-07-24T07:55:24.073Z,99790.06
2023-07-24T07:57:51.418Z,99783.09
2023-07-24T08:00:19.220Z,99780.47
2023-07-24T08:02:47.052Z,99791.88
2023-07-24T08:05:20.210Z,99780.06
2023-07-24T08:07:48.808Z,99766.19
2023-07-24T08:10:17.851Z,99772.19
2023-07-24T08:12:45.570Z,99773.44
2023-07-24T08:15:12.967Z,99763.09
2023-07-24T08:17:40.608Z,99747.22
2023-07-24T08:20:08.321Z,99758.19
2023-07-24T08:22:36.646Z,99766.66
2023-07-24T08:25:04.621Z,99766.66
2023-07-24T08:27:34.747Z,99772.34
2023-07-24T08:30:07.653Z,99763.56
2023-07-24T08:32:35.139Z,99749.66
2023-07-24T08:35:02.594Z,99757.16
2023-07-24T08:37:29.903Z,99736.63
2023-07-24T08:39:57.192Z,99751.41
2023-07-24T08:42:24.626Z,99753.38
2023-07-24T08:44:51.947Z,99748.22
2023-07-24T08:47:19.305Z,99752.53
2023-07-24T08:49:46.723Z,99740.78
2023-07-24T08:52:26.896Z,99746.72
2023-07-24T08:55:02.118Z,99747.75
2023-07-24T08:57:29.411Z,99752.47
2023-07-24T08:59:56.717Z,99759.47
2023-07-24T09:02:24.128Z,99761.03
2023-07-24T09:04:51.507Z,99743.72
2023-07-24T09:07:20.400Z,99745.50
2023-07-24T09:09:50.323Z,99731.09
2023-07-24T09:12:17.955Z,99726.50
2023-07-24T09:14:46.439Z,99726.31
2023-07-24T09:17:13.842Z,99726.03
2023-07-24T09:19:41.337Z,99723.19
2023-07-24T09:22:16.021Z,99710.00
2023-07-24T09:24:53.468Z,99715.56
2023-07-24T09:27:21.168Z,99707.22
2023-07-24T09:29:48.620Z,99703.44
2023-07-24T09:32:22.830Z,99708.19
2023-07-24T09:34:55.522Z,99697.81
2023-07-24T09:37:35.856Z,99678.69
2023-07-24T09:40:06.560Z,99685.03
2023-07-24T09:42:38.896Z,99680.19
2023-07-24T09:45:12.489Z,99667.75
2023-07-24T09:50:11.181Z,99710.44
2023-07-24T09:52:39.198Z,99697.78
2023-07-24T09:55:12.553Z,99685.88
2023-07-24T09:57:43.843Z,99689.88
2023-07-24T10:00:12.754Z,99688.22
2023-07-24T10:02:40.380Z,99681.19
2023-07-24T10:05:07.838Z,99680.72
2023-07-24T10:07:35.130Z,99677.72
2023-07-24T10:10:02.694Z,99667.44
2023-07-24T10:12:31.595Z,99681.13
2023-07-24T10:14:59.088Z,99665.44
2023-07-24T10:17:39.916Z,99662.38
2023-07-24T10:20:13.130Z,99650.94
2023-07-24T10:22:43.763Z,99650.03
2023-07-24T10:25:12.464Z,99658.25
2023-07-24T10:27:47.605Z,99658.81
2023-07-24T10:30:32.015Z,99649.06
2023-07-24T10:33:06.036Z,99645.56
2023-07-24T10:35:50.374Z,99640.97
2023-07-24T10:38:18.109Z,99638.25
2023-07-24T10:40:51.692Z,99634.06
2023-07-24T10:43:19.856Z,99637.34
2023-07-24T10:45:47.231Z,99638.34
2023-07-24T10:48:14.701Z,99628.81
2023-07-24T10:50:43.709Z,99630.53
2023-07-24T10:53:12.041Z,99625.44
2023-07-24T10:55:39.547Z,99636.69
2023-07-24T10:58:07.308Z,99634.91
2023-07-24T11:00:35.466Z,99618.94
2023-07-24T11:03:02.970Z,99619.00
2023-07-24T11:05:32.611Z,99605.69
2023-07-24T11:07:59.977Z,99602.03
2023-07-24T11:10:28.260Z,99604.34
2023-07-24T11:12:55.683Z,99611.97
2023-07-24T11:15:29.308Z,99615.53
2023-07-24T11:17:56.877Z,99615.75
2023-07-24T11:20:24.355Z,99619.97
2023-07-24T11:22:54.663Z,99599.16
2023-07-24T11:25:22.142Z,99596.44
2023-07-24T11:27:52.496Z,99603.47
2023-07-24T11:30:23.282Z,99607.09
2023-07-24T11:32:50.814Z,99600.34
2023-07-24T11:35:18.421Z,99599.63
2023-07-24T11:37:45.979Z,99601.41
2023-07-24T11:40:16.031Z,99601.91
2023-07-24T11:42:46.420Z,99593.91
2023-07-24T11:45:13.878Z,99580.94
2023-07-24T11:47:48.925Z,99580.75
2023-07-24T11:50:17.392Z,99582.19
2023-07-24T11:52:46.313Z,99566.19
2023-07-24T11:55:18.681Z,99573.38
2023-07-24T11:58:01.966Z,99574.94
2023-07-24T12:00:29.520Z,99569.59
2023-07-24T12:03:01.241Z,99573.66
2023-07-24T12:05:29.042Z,99567.06
2023-07-24T12:07:56.709Z,99571.59
2023-07-24T12:10:31.328Z,99564.50
2023-07-24T12:13:02.163Z,99564.47
2023-07-24T12:15:36.545Z,99550.66
2023-07-24T12:18:05.426Z,99555.28
2023-07-24T12:20:33.065Z,99540.81
2023-07-24T12:23:00.523Z,99534.41
2023-07-24T12:25:27.907Z,99532.00
2023-07-24T12:27:55.248Z,99533.88
2023-07-24T12:30:22.613Z,99524.22
2023-07-24T12:32:50.063Z,99515.75
2023-07-24T12:35:18.286Z,99509.88
2023-07-24T12:37:46.854Z,99494.81
2023-07-24T12:40:14.621Z,99481.88
2023-07-24T12:42:42.018Z,99500.44
2023-07-24T12:45:11.012Z,99498.19
2023-07-24T12:47:38.818Z,99481.88
2023-07-24T12:50:08.328Z,99470.94
2023-07-24T12:52:36.181Z,99471.31
2023-07-24T12:55:04.103Z,99469.84
2023-07-24T12:57:31.509Z,99465.03
2023-07-24T12:59:58.917Z,99463.28
2023-07-24T13:02:26.387Z,99459.94
2023-07-24T13:04:53.833Z,99468.19
2023-07-24T13:07:21.520Z,99454.75
2023-07-24T13:09:49.661Z,99457.13
2023-07-24T13:12:17.172Z,99440.53
2023-07-24T13:14:44.666Z,99436.94
2023-07-24T13:17:14.287Z,99438.72
2023-07-24T13:19:41.869Z,99431.41
2023-07-24T13:22:09.355Z,99437.38
2023-07-24T13:24:39.534Z,99434.28
2023-07-24T13:27:08.434Z,99430.38
2023-07-24T13:29:36.180Z,99418.56
2023-07-24T13:32:03.627Z,99425.25
2023-07-24T13:34:30.940Z,99410.94
2023-07-24T13:36:58.402Z,99403.66
2023-07-24T13:39:25.802Z,99405.06
2023-07-24T13:41:53.766Z,99395.28
2023-07-24T13:44:21.155Z,99393.03
2023-07-24T13:46:49.299Z,99385.03
2023-07-24T13:49:16.926Z,99369.34
2023-07-24T13:51:47.599Z,99370.84
2023-07-24T13:54:15.432Z,99361.66
2023-07-24T13:56:42.854Z,99347.66
2023-07-24T13:59:13.131Z,99349.81
2023-07-24T14:01:49.330Z,99354.44
2023-07-24T14:04:16.782Z,99353.34
2023-07-24T14:06:46.535Z,99353.63
2023-07-24T14:09:14.056Z,99334.13
2023-07-24T14:11:41.499Z,99337.03
2023-07-24T14:14:09.251Z,99331.66
2023-07-24T14:16:38.950Z,99330.22
2023-07-24T14:19:08.654Z,99322.22
2023-07-24T14:21:36.122Z,99308.50
2023-07-24T14:24:03.938Z,99301.34
2023-07-24T14:26:31.348Z,99302.91
2023-07-24T14:28:58.678Z,99302.69
2023-07-24T14:31:26.599Z,99297.81
2023-07-24T14:33:54.121Z,99299.63
2023-07-24T14:36:21.530Z,99285.41
2023-07-24T14:38:49.001Z,99278.56
2023-07-24T14:41:16.922Z,99278.88
2023-07-24T14:43:44.329Z,99264.72
2023-07-24T14:46:11.721Z,99265.44
2023-07-24T14:48:41.918Z,99266.16
2023-07-24T14:51:09.280Z,99260.28
2023-07-24T14:53:38.136Z,99260.94
2023-07-24T14:56:09.981Z,99263.00
2023-07-24T14:58:37.715Z,99242.22
2023-07-24T15:01:05.185Z,99240.19
2023-07-24T15:03:32.513Z,99236.47
2023-07-24T15:06:07.100Z,99220.47
2023-07-24T15:08:35.138Z,99224.06
2023-07-24T15:11:04.030Z,99218.47
2023-07-24T15:13:35.914Z,99218.94
2023-07-24T15:16:09.003Z,99211.72
2023-07-24T15:18:36.698Z,99202.59
2023-07-24T15:21:04.090Z,99199.94
2023-07-24T15:23:31.935Z,99193.78
2023-07-24T15:25:59.848Z,99192.56
2023-07-24T15:28:27.484Z,99185.75
2023-07-24T15:30:55.226Z,99183.78
2023-07-24T15:33:22.673Z,99180.38
2023-07-24T15:35:50.793Z,99164.41
2023-07-24T15:38:18.229Z,99168.53
2023-07-24T15:40:45.654Z,99159.06
2023-07-24T15:43:13.164Z,99152.75
2023-07-24T15:45:40.728Z,99135.59
2023-07-24T15:48:08.186Z,99133.63
2023-07-24T15:50:35.989Z,99125.03
2023-07-24T15:53:03.433Z,99125.69
2023-07-24T15:55:31.275Z,99116.94
2023-07-24T15:58:02.312Z,99120.13
2023-07-24T16:00:29.718Z,99117.63
2023-07-24T16:02:57.740Z,99121.94
2023-07-24T16:05:25.190Z,99124.03
2023-07-24T16:07:53.079Z,99120.88
2023-07-24T16:10:22.692Z,99119.84
2023-07-24T16:12:50.227Z,99113.38
2023-07-24T16:15:18.216Z,99104.69
2023-07-24T16:18:05.990Z,99108.56
2023-07-24T16:20:35.631Z,99109.59
2023-07-24T16:23:03.089Z,99096.06
2023-07-24T16:25:30.377Z,99086.97
2023-07-24T16:27:57.741Z,99085.75
2023-07-24T16:30:27.775Z,99072.25
2023-07-24T16:32:55.399Z,99083.16
2023-07-24T16:35:22.940Z,99083.41
2023-07-24T16:37:53.991Z,99093.06
2023-07-24T16:40:21.614Z,99085.22
2023-07-24T16:42:51.611Z,99080.53
2023-07-24T16:47:54.413Z,99083.25
2023-07-24T16:50:21.948Z,99083.75
2023-07-24T16:52:49.332Z,99085.06
2023-07-24T16:55:16.783Z,99092.47
2023-07-24T16:57:45.338Z,99103.28
2023-07-24T17:00:13.421Z,99095.66
2023-07-24T17:02:41.388Z,99081.47
2023-07-24T17:05:09.164Z,99077.69
2023-07-24T17:07:36.572Z,99069.09
2023-07-24T17:10:04.299Z,99063.03
2023-07-24T17:12:32.072Z,99059.47
2023-07-24T17:14:59.475Z,99051.31
2023-07-24T17:17:27.980Z,99051.84
2023-07-24T17:19:55.916Z,99045.28
2023-07-24T17:22:23.554Z,99045.50
2023-07-24T17:24:51.306Z,99035.38
2023-07-24T17:27:22.581Z,99038.94
2023-07-24T17:29:50.101Z,99035.88
2023-07-24T17:32:23.168Z,99037.66
2023-07-24T17:34:50.578Z,99023.19
2023-07-24T17:37:28.370Z,99022.69
2023-07-24T17:40:07.994Z,99017.59
2023-07-24T17:42:37.904Z,99021.06
2023-07-24T17:45:06.251Z,99016.47
2023-07-24T17:47:34.024Z,99016.69
2023-07-24T17:50:07.734Z,99024.25
2023-07-24T17:52:36.465Z,99017.84
2023-07-24T17:55:25.578Z,99019.28
2023-07-24T17:57:54.440Z,99021.25
2023-07-24T18:00:23.091Z,99023.78
2023-07-24T18:02:51.443Z,99026.75
2023-07-24T18:05:19.181Z,99023.84
2023-07-24T18:07:47.617Z,99020.72
2023-07-24T18:10:16.548Z,99023.63
2023-07-24T18:12:45.974Z,99034.25
2023-07-24T18:15:13.424Z,99044.44
2023-07-24T18:17:40.824Z,99037.66
2023-07-24T18:20:09.726Z,99031.50
2023-07-24T18:22:37.140Z,99037.22
2023-07-24T18:25:04.771Z,99036.16
2023-07-24T18:27:32.435Z,99026.94
2023-07-24T18:29:59.736Z,99021.28
2023-07-24T18:32:27.171Z,99023.66
2023-07-24T18:34:54.543Z,99017.03
2023-07-24T18:37:22.018Z,99030.09
2023-07-24T18:39:50.647Z,99035.72
2023-07-24T18:42:18.144Z,99025.66
2023-07-24T18:44:45.510Z,99027.63
2023-07-24T18:47:12.820Z,99034.28
2023-07-24T18:49:40.169Z,99044.34
2023-07-24T18:52:08.292Z,99040.44
2023-07-24T18:54:35.883Z,99047.75
2023-07-24T18:57:03.449Z,99046.22
2023-07-24T18:59:30.895Z,99051.78
2023-07-24T19:01:58.263Z,99039.72
2023-07-24T19:04:25.733Z,99049.25
2023-07-24T19:06:53.318Z,99048.72
2023-07-24T19:09:20.731Z,99044.41
2023-07-24T19:11:48.790Z,99042.81
2023-07-24T19:14:16.765Z,99031.72
2023-07-24T19:16:44.562Z,99040.84
2023-07-24T19:19:11.973Z,99027.66
2023-07-24T19:21:39.272Z,99026.81
2023-07-24T19:24:07.659Z,99025.28
2023-07-24T19:26:35.081Z,99017.63
2023-07-24T19:29:02.469Z,99019.19
2023-07-24T19:31:30.359Z,99009.16
2023-07-24T19:33:58.026Z,99010.41
2023-07-24T19:36:25.501Z,99004.38
2023-07-24T19:38:52.825Z,99004.66
2023-07-24T19:41:20.211Z,99007.91
2023-07-24T19:43:47.664Z,98992.59
2023-07-24T19:46:15.739Z,99000.06
2023-07-24T19:48:43.463Z,99004.88
2023-07-24T19:51:11.116Z,99014.56
2023-07-24T19:53:38.927Z,99010.53
2023-07-24T19:56:06.435Z,99004.84
2023-07-24T19:58:37.004Z,99004.59
2023-07-24T20:01:05.219Z,99004.84
2023-07-24T20:03:32.793Z,98996.75
2023-07-24T20:06:04.246Z,99002.63
2023-07-24T20:08:37.244Z,99000.88
2023-07-24T20:11:06.996Z,98993.38
2023-07-24T20:13:34.847Z,99000.78
2023-07-24T20:16:02.418Z,98987.91
2023-07-24T20:18:29.969Z,98981.91
2023-07-24T20:20:57.675Z,98977.13
2023-07-24T20:23:25.191Z,98985.09
2023-07-24T20:25:52.655Z,98995.88
2023-07-24T20:28:21.645Z,98993.56
2023-07-24T20:30:49.278Z,98995.25
2023-07-24T20:33:16.921Z,99003.69
2023-07-24T20:35:47.728Z,98985.38
2023-07-24T20:38:28.390Z,98988.22
2023-07-24T20:40:59.287Z,98985.66
2023-07-24T20:43:26.977Z,98987.97
2023-07-24T20:45:54.833Z,98982.44
2023-07-24T20:48:23.038Z,98985.44
2023-07-24T20:50:50.485Z,98980.38
2023-07-24T20:53:17.852Z,98975.97
2023-07-24T20:55:45.185Z,98984.75
2023-07-24T20:58:12.494Z,98976.16
2023-07-24T21:00:43.242Z,98972.19
2023-07-24T21:03:11.034Z,98968.66
2023-07-24T21:05:38.673Z,98961.41
2023-07-24T21:08:06.602Z,98956.53
2023-07-24T21:10:34.072Z,98951.34
2023-07-24T21:13:01.572Z,98965.63
2023-07-24T21:15:28.952Z,98969.53
2023-07-24T21:17:56.348Z,98978.88
2023-07-24T21:20:24.029Z,98983.69
2023-07-24T21:22:51.391Z,98979.66
2023-07-24T21:25:19.488Z,98985.81
2023-07-24T21:27:46.838Z,98984.00
2023-07-24T21:30:14.343Z,98982.47
2023-07-24T21:32:41.808Z,98984.06
2023-07-24T21:35:10.875Z,98974.06
2023-07-24T21:37:40.853Z,98967.19
2023-07-24T21:40:09.326Z,98967.16
2023-07-24T21:42:36.659Z,98970.38
2023-07-24T21:45:04.299Z,98978.22
2023-07-24T21:47:31.763Z,98975.56
2023-07-24T21:49:59.527Z,98952.69
2023-07-24T21:52:27.237Z,98946.81
2023-07-24T21:54:54.550Z,98963.69
2023-07-24T21:57:22.735Z,98956.34
2023-07-24T21:59:50.319Z,98941.94
2023-07-24T22:02:17.688Z,98942.13
2023-07-24T22:04:45.094Z,98939.34
2023-07-24T22:07:12.456Z,98933.38
2023-07-24T22:09:39.812Z,98942.88
2023-07-24T22:12:08.406Z,98943.81
2023-07-24T22:14:35.925Z,98960.91
2023-07-24T22:17:03.475Z,98972.72
2023-07-24T22:19:31.027Z,98972.25
2023-07-24T22:21:58.490Z,98967.16
2023-07-24T22:24:25.915Z,98977.28
2023-07-24T22:26:53.524Z,98978.34
2023-07-24T22:29:20.967Z,98970.78
2023-07-24T22:31:49.092Z,98974.59
2023-07-24T22:34:16.789Z,98970.16
2023-07-24T22:36:44.754Z,98989.56
2023-07-24T22:39:12.088Z,98982.91
2023-07-24T22:41:39.652Z,98972.50
2023-07-24T22:44:07.563Z,98982.56
2023-07-24T22:46:35.024Z,98979.84
2023-07-24T22:49:03.632Z,98985.16
2023-07-24T22:51:31.341Z,98987.03
2023-07-24T22:53:59.154Z,98962.94
2023-07-24T22:56:28.433Z,98968.34
2023-07-24T22:59:07.891Z,98962.53
2023-07-24T23:01:35.479Z,98960.22
2023-07-24T23:04:03.041Z,98955.97
2023-07-24T23:06:30.383Z,98957.00
2023-07-24T23:08:57.827Z,98943.13
2023-07-24T23:11:25.203Z,98951.09
2023-07-24T23:13:53.498Z,98950.91
2023-07-24T23:16:20.991Z,98950.75
2023-07-24T23:18:48.410Z,98949.41
2023-07-24T23:21:15.723Z,98953.88
2023-07-24T23:23:43.109Z,98953.09
2023-07-24T23:26:10.804Z,98956.03
2023-07-24T23:28:38.179Z,98952.94
2023-07-24T23:31:06.117Z,98950.53
2023-07-24T23:33:34.539Z,98942.28
2023-07-24T23:36:02.627Z,98948.41
2023-07-24T23:38:30.342Z,98928.66
2023-07-24T23:41:01.106Z,98926.22
2023-07-24T23:43:28.491Z,98923.03
2023-07-24T23:45:55.808Z,98922.75
2023-07-24T23:48:24.407Z,98929.22
2023-07-24T23:50:56.134Z,98932.16
2023-07-24T23:53:23.834Z,98937.81
2023-07-24T23:55:54.621Z,98925.84
2023-07-24T23:58:22.008Z,98932.00
